Time;durP1;ratioP1;P1;durP2;ratioP2;P2;SDS_P1;SDS_P2;PMS_P1;PMS_P2;Temp;Humidity;BMP_temperature;BMP_pressure;BME280_temperature;BME280_humidity;BME280_pressure;Samples;Min_cycle;Max_cycle;Signal;HPM_P1;HPM_P2
2023/08/13 00:01:05;;;;;;;7.07;5.10;;;15.30;99.90;;;;;;5095836;28;20209;-76
2023/08/13 00:03:31;;;;;;;7.32;4.60;;;15.20;99.90;;;;;;5095893;28;20681;-76
2023/08/13 00:05:56;;;;;;;6.10;5.18;;;15.20;99.90;;;;;;5094375;28;20237;-76
2023/08/13 00:08:22;;;;;;;7.07;5.03;;;15.30;99.90;;;;;;5095337;28;20208;-76
2023/08/13 00:10:48;;;;;;;7.72;4.90;;;15.30;99.90;;;;;;5093869;28;20690;-76
2023/08/13 00:13:14;;;;;;;8.40;4.97;;;15.20;99.90;;;;;;5095495;28;20739;-76
2023/08/13 00:15:40;;;;;;;6.05;4.80;;;15.20;99.90;;;;;;5093825;28;20173;-76
2023/08/13 00:18:06;;;;;;;5.90;4.50;;;15.10;99.90;;;;;;5093662;28;20343;-76
2023/08/13 00:20:32;;;;;;;5.22;4.28;;;15.20;99.90;;;;;;5093892;28;20182;-76
2023/08/13 00:22:57;;;;;;;10.77;4.70;;;15.20;99.90;;;;;;5095671;28;20686;-76
2023/08/13 00:25:23;;;;;;;6.15;3.92;;;15.20;99.90;;;;;;5094698;28;20276;-76
2023/08/13 00:27:49;;;;;;;8.15;4.63;;;15.20;99.90;;;;;;5093413;28;20204;-76
2023/08/13 00:30:15;;;;;;;6.82;4.65;;;15.20;99.90;;;;;;5093963;28;20235;-76
2023/08/13 00:32:40;;;;;;;9.30;4.82;;;15.10;99.90;;;;;;5095139;28;20189;-77
2023/08/13 00:35:06;;;;;;;7.75;5.43;;;15.10;99.90;;;;;;5093662;28;20173;-76
2023/08/13 00:37:35;;;;;;;7.38;4.95;;;15.20;99.90;;;;;;5093621;28;20207;-76
2023/08/13 00:40:00;;;;;;;5.18;4.40;;;15.20;99.90;;;;;;5093257;28;20220;-76
2023/08/13 00:42:26;;;;;;;10.25;5.40;;;15.20;99.90;;;;;;5094608;28;20630;-76
2023/08/13 00:44:52;;;;;;;9.63;5.20;;;15.20;99.90;;;;;;5093974;28;20633;-76
2023/08/13 00:47:18;;;;;;;9.00;5.63;;;15.20;99.90;;;;;;5095180;28;20602;-76
2023/08/13 00:49:43;;;;;;;7.50;6.15;;;15.20;99.90;;;;;;5093176;28;20208;-76
2023/08/13 00:52:09;;;;;;;9.88;6.10;;;15.20;99.90;;;;;;5093420;28;20188;-76
2023/08/13 00:54:35;;;;;;;9.75;5.68;;;15.10;99.90;;;;;;5093262;28;20185;-76
2023/08/13 00:57:03;;;;;;;6.03;5.43;;;15.10;99.90;;;;;;5094369;28;20169;-76
2023/08/13 00:59:30;;;;;;;6.95;5.15;;;15.10;99.90;;;;;;5093008;28;20205;-76
2023/08/13 01:01:56;;;;;;;9.95;5.75;;;15.10;99.90;;;;;;5093106;28;20176;-76
2023/08/13 01:04:22;;;;;;;10.43;5.20;;;15.10;99.90;;;;;;5094444;28;20170;-76
2023/08/13 01:07:18;;;;;;;8.10;5.70;;;15.10;99.90;;;;;;5092787;28;20570;-76
2023/08/13 01:10:13;;;;;;;7.97;5.90;;;15.20;99.90;;;;;;5092685;28;20224;-76
2023/08/13 01:12:48;;;;;;;7.18;5.78;;;15.10;99.90;;;;;;5094169;28;20641;-76
2023/08/13 01:15:21;;;;;;;12.95;5.60;;;15.20;99.90;;;;;;5094340;28;20632;-76
2023/08/13 01:17:52;;;;;;;7.65;6.05;;;15.20;99.90;;;;;;5094520;28;20154;-76
2023/08/13 01:20:18;;;;;;;12.95;6.47;;;15.20;99.90;;;;;;5093169;28;20257;-76
2023/08/13 01:22:48;;;;;;;8.50;5.88;;;15.20;99.90;;;;;;5095083;28;20171;-76
2023/08/13 01:25:14;;;;;;;14.27;6.32;;;15.20;99.90;;;;;;5092854;28;20169;-76
2023/08/13 01:27:50;;;;;;;9.23;6.00;;;15.20;99.90;;;;;;5094108;28;20613;-75
2023/08/13 01:30:29;;;;;;;9.18;6.18;;;15.20;99.90;;;;;;5092807;28;20169;-75
2023/08/13 01:33:05;;;;;;;6.95;5.72;;;15.10;99.90;;;;;;5094050;28;20172;-75
2023/08/13 01:35:32;;;;;;;7.88;6.13;;;15.20;99.90;;;;;;5092626;28;20204;-75
2023/08/13 01:38:03;;;;;;;5.60;5.00;;;15.10;99.90;;;;;;5093902;28;20173;-75
2023/08/13 01:40:29;;;;;;;8.95;5.60;;;15.10;99.90;;;;;;5092638;28;20570;-75
2023/08/13 01:42:56;;;;;;;8.00;5.93;;;15.20;99.90;;;;;;5092490;28;20222;-75
2023/08/13 01:45:22;;;;;;;11.90;5.10;;;15.20;99.90;;;;;;5092719;28;20173;-75
2023/08/13 01:47:48;;;;;;;7.82;4.88;;;15.20;99.90;;;;;;5092377;28;20200;-75
2023/08/13 01:50:14;;;;;;;9.35;5.25;;;15.20;99.90;;;;;;5093791;28;20169;-75
2023/08/13 01:52:40;;;;;;;6.18;4.90;;;15.30;99.90;;;;;;5092626;28;20177;-75
2023/08/13 01:55:06;;;;;;;6.35;4.93;;;15.30;99.90;;;;;;5092587;28;20237;-75
2023/08/13 01:57:32;;;;;;;9.68;5.60;;;15.30;99.90;;;;;;5096198;28;20188;-75
2023/08/13 01:59:58;;;;;;;8.90;5.20;;;15.30;99.90;;;;;;5097964;28;20201;-75
2023/08/13 02:02:24;;;;;;;9.30;5.35;;;15.30;99.90;;;;;;5096497;28;20177;-75
2023/08/13 02:04:50;;;;;;;7.78;5.03;;;15.30;99.90;;;;;;5096490;28;20173;-75
2023/08/13 02:07:15;;;;;;;8.38;5.68;;;15.40;99.90;;;;;;5097590;28;20188;-75
2023/08/13 02:09:41;;;;;;;10.43;5.97;;;15.40;99.90;;;;;;5097554;28;20201;-75
2023/08/13 02:12:07;;;;;;;9.38;5.40;;;15.30;99.90;;;;;;5097484;28;20158;-75
2023/08/13 02:14:33;;;;;;;8.73;5.97;;;15.30;99.90;;;;;;5097374;28;20180;-75
2023/08/13 02:16:59;;;;;;;10.20;5.60;;;15.30;99.90;;;;;;5097629;28;20178;-75
2023/08/13 02:19:25;;;;;;;10.88;6.22;;;15.30;99.90;;;;;;5096108;28;20196;-75
2023/08/13 02:21:51;;;;;;;9.63;5.40;;;15.30;99.90;;;;;;5097576;28;20173;-75
2023/08/13 02:24:17;;;;;;;7.82;4.95;;;15.30;99.90;;;;;;5097711;28;20257;-75
2023/08/13 02:26:43;;;;;;;9.43;5.05;;;15.30;99.90;;;;;;5097255;28;20183;-75
2023/08/13 02:29:08;;;;;;;5.15;4.65;;;15.20;99.90;;;;;;5097072;28;20209;-75
2023/08/13 02:31:34;;;;;;;6.65;4.78;;;15.30;99.90;;;;;;5096150;28;20230;-75
2023/08/13 02:34:00;;;;;;;6.63;4.82;;;15.20;99.90;;;;;;5096154;28;20244;-75
2023/08/13 02:36:26;;;;;;;8.50;4.97;;;15.20;99.90;;;;;;5096088;28;20238;-75
2023/08/13 02:38:51;;;;;;;7.07;4.72;;;15.20;99.90;;;;;;5095667;28;20664;-75
2023/08/13 02:41:17;;;;;;;5.85;4.38;;;15.10;99.90;;;;;;5097046;28;20173;-75
2023/08/13 02:43:51;;;;;;;5.25;4.60;;;15.20;99.90;;;;;;5095815;28;20173;-75
2023/08/13 02:46:16;;;;;;;8.93;5.30;;;15.20;99.90;;;;;;5097144;28;20633;-75
2023/08/13 02:48:42;;;;;;;10.52;5.55;;;15.20;99.90;;;;;;5095617;28;20215;-75
2023/08/13 02:51:08;;;;;;;8.18;5.00;;;15.20;99.90;;;;;;5095744;28;20177;-75
2023/08/13 02:53:34;;;;;;;9.68;5.07;;;15.30;99.90;;;;;;5096813;28;20577;-75
2023/08/13 02:55:59;;;;;;;8.52;5.32;;;15.20;99.90;;;;;;5096650;28;20184;-75
2023/08/13 02:58:25;;;;;;;9.38;5.30;;;15.20;99.90;;;;;;5096930;28;20287;-75
2023/08/13 03:00:51;;;;;;;7.70;5.53;;;15.30;99.90;;;;;;5095312;28;20234;-75
2023/08/13 03:03:17;;;;;;;8.98;5.15;;;15.30;99.90;;;;;;5095856;28;20177;-75
2023/08/13 03:05:42;;;;;;;6.82;5.38;;;15.20;99.90;;;;;;5096772;28;20649;-75
2023/08/13 03:08:08;;;;;;;9.88;6.13;;;15.20;99.90;;;;;;5095427;28;20228;-75
2023/08/13 03:10:34;;;;;;;8.27;5.47;;;15.10;99.90;;;;;;5095093;28;20697;-75
2023/08/13 03:12:59;;;;;;;17.85;5.43;;;15.10;99.90;;;;;;5095280;28;20180;-75
2023/08/13 03:15:25;;;;;;;13.50;5.30;;;15.10;99.90;;;;;;5095230;28;20260;-75
2023/08/13 03:17:51;;;;;;;8.05;5.28;;;15.10;99.90;;;;;;5095144;28;20222;-75
2023/08/13 03:20:16;;;;;;;7.28;5.10;;;15.00;99.90;;;;;;5096767;28;20532;-75
2023/08/13 03:22:42;;;;;;;9.45;5.47;;;15.00;99.90;;;;;;5096610;28;20183;-75
2023/08/13 03:25:08;;;;;;;11.43;4.55;;;14.90;99.90;;;;;;5096378;28;20204;-75
2023/08/13 03:27:34;;;;;;;7.65;4.53;;;14.90;99.90;;;;;;5096099;28;20216;-75
2023/08/13 03:29:59;;;;;;;6.90;4.40;;;14.80;99.90;;;;;;5096712;28;20189;-75
2023/08/13 03:32:25;;;;;;;5.47;4.10;;;14.90;99.90;;;;;;5096346;28;20184;-75
2023/08/13 03:34:51;;;;;;;6.18;4.40;;;14.80;99.90;;;;;;5095397;28;20223;-75
2023/08/13 03:37:17;;;;;;;7.70;4.90;;;14.80;99.90;;;;;;5095974;28;20177;-75
2023/08/13 03:39:42;;;;;;;8.15;4.65;;;14.80;99.90;;;;;;5096632;28;20204;-75
2023/08/13 03:42:08;;;;;;;5.50;4.55;;;14.80;99.90;;;;;;5095400;28;20188;-75
2023/08/13 03:44:34;;;;;;;10.98;5.15;;;14.80;99.90;;;;;;5096736;28;20251;-75
2023/08/13 03:47:00;;;;;;;6.57;4.88;;;14.80;99.90;;;;;;5096385;28;20192;-75
2023/08/13 03:49:26;;;;;;;10.88;5.38;;;14.70;99.90;;;;;;5096076;28;20223;-75
2023/08/13 03:51:52;;;;;;;8.90;5.50;;;14.70;99.90;;;;;;5095873;28;20180;-75
2023/08/13 03:54:17;;;;;;;9.65;5.32;;;14.60;99.90;;;;;;5094667;28;20247;-75
2023/08/13 03:56:43;;;;;;;6.70;5.53;;;14.60;99.90;;;;;;5094423;28;20181;-75
2023/08/13 03:59:09;;;;;;;8.75;5.18;;;14.60;99.90;;;;;;5095679;28;20228;-75
2023/08/13 04:01:35;;;;;;;10.82;5.25;;;14.50;99.90;;;;;;5094280;28;20177;-75
2023/08/13 04:04:01;;;;;;;7.95;5.45;;;14.50;99.90;;;;;;5094463;28;20704;-75
2023/08/13 04:06:27;;;;;;;10.93;5.40;;;14.50;99.90;;;;;;5093903;28;20193;-75
2023/08/13 04:08:52;;;;;;;14.00;5.88;;;14.50;99.90;;;;;;5095468;28;20220;-75
2023/08/13 04:11:18;;;;;;;11.68;5.68;;;14.40;99.90;;;;;;5094049;28;20201;-75
2023/08/13 04:13:44;;;;;;;7.88;5.30;;;14.40;99.90;;;;;;5094135;28;20173;-75
2023/08/13 04:16:10;;;;;;;9.88;5.43;;;14.40;99.90;;;;;;5095435;28;20183;-75
2023/08/13 04:18:36;;;;;;;8.13;5.03;;;14.40;99.90;;;;;;5094421;28;20239;-75
2023/08/13 04:21:01;;;;;;;8.40;4.80;;;14.30;99.90;;;;;;5095070;28;20206;-75
2023/08/13 04:23:27;;;;;;;8.13;4.55;;;14.40;99.90;;;;;;5093999;28;20702;-75
2023/08/13 04:25:53;;;;;;;6.43;4.70;;;14.30;99.90;;;;;;5093542;28;20181;-75
2023/08/13 04:28:18;;;;;;;7.47;4.88;;;14.40;99.90;;;;;;5093499;28;20575;-75
2023/08/13 04:30:44;;;;;;;6.88;4.63;;;14.30;99.90;;;;;;5093738;28;20629;-75
2023/08/13 04:33:10;;;;;;;8.55;4.88;;;14.30;99.90;;;;;;5093577;28;20180;-75
2023/08/13 04:35:35;;;;;;;8.15;4.50;;;14.30;99.90;;;;;;5094995;28;20169;-75
2023/08/13 04:38:01;;;;;;;10.05;5.05;;;14.30;99.90;;;;;;5093512;28;20173;-75
2023/08/13 04:40:27;;;;;;;8.25;4.45;;;14.30;99.90;;;;;;5093449;28;20179;-75
2023/08/13 04:42:53;;;;;;;6.63;4.80;;;14.30;99.90;;;;;;5093293;28;20195;-75
2023/08/13 04:45:18;;;;;;;6.13;4.60;;;14.30;99.90;;;;;;5094656;28;20169;-75
2023/08/13 04:47:44;;;;;;;5.78;4.30;;;14.30;99.90;;;;;;5094398;28;20252;-75
2023/08/13 04:50:10;;;;;;;8.45;4.18;;;14.30;99.90;;;;;;5093317;28;20254;-75
2023/08/13 04:52:36;;;;;;;8.95;4.70;;;14.30;99.90;;;;;;5093596;28;20205;-75
2023/08/13 04:55:02;;;;;;;9.57;4.60;;;14.30;99.90;;;;;;5093224;28;20173;-75
2023/08/13 04:57:28;;;;;;;7.45;4.10;;;14.40;99.90;;;;;;5093061;28;20669;-75
2023/08/13 04:59:54;;;;;;;4.72;4.22;;;14.40;99.90;;;;;;5094359;28;20202;-75
2023/08/13 05:02:19;;;;;;;7.80;4.00;;;14.40;99.90;;;;;;5092957;28;20196;-74
2023/08/13 05:04:45;;;;;;;4.78;4.28;;;14.40;99.90;;;;;;5092568;28;20545;-74
2023/08/13 05:07:11;;;;;;;7.25;5.25;;;14.50;99.90;;;;;;5093748;28;20714;-75
2023/08/13 05:09:37;;;;;;;6.00;4.25;;;14.50;99.90;;;;;;5093783;28;20208;-74
2023/08/13 05:12:02;;;;;;;5.05;4.22;;;14.50;99.90;;;;;;5093459;28;20188;-75
2023/08/13 05:14:28;;;;;;;6.13;4.80;;;14.50;99.90;;;;;;5092448;28;20556;-74
2023/08/13 05:16:54;;;;;;;8.30;4.50;;;14.60;99.90;;;;;;5094245;28;20234;-74
2023/08/13 05:19:21;;;;;;;8.93;5.07;;;14.60;99.90;;;;;;5093628;28;20220;-74
2023/08/13 05:21:46;;;;;;;8.73;4.32;;;14.60;99.90;;;;;;5092460;28;20184;-74
2023/08/13 05:24:12;;;;;;;9.38;3.55;;;14.70;99.90;;;;;;5093656;28;20169;-74
2023/08/13 05:26:38;;;;;;;8.68;4.43;;;14.70;99.90;;;;;;5092035;28;20218;-74
2023/08/13 05:29:04;;;;;;;7.20;4.50;;;14.70;99.90;;;;;;5092046;28;20307;-74
2023/08/13 05:31:30;;;;;;;6.22;4.30;;;14.70;99.90;;;;;;5091750;28;20587;-74
2023/08/13 05:33:57;;;;;;;5.63;4.20;;;14.80;99.90;;;;;;5093970;28;20176;-74
2023/08/13 05:36:26;;;;;;;5.43;4.35;;;14.80;99.90;;;;;;5092148;28;20173;-74
2023/08/13 05:38:52;;;;;;;9.13;5.25;;;14.80;99.90;;;;;;5092103;28;20196;-74
2023/08/13 05:41:18;;;;;;;7.50;4.55;;;15.00;99.90;;;;;;5093479;28;20184;-74
2023/08/13 05:43:44;;;;;;;6.20;4.93;;;15.00;99.90;;;;;;5092047;28;20173;-74
2023/08/13 05:46:09;;;;;;;7.47;5.20;;;15.10;99.90;;;;;;5093432;28;20177;-74
2023/08/13 05:48:35;;;;;;;8.30;4.90;;;15.20;99.90;;;;;;5093292;28;20232;-74
2023/08/13 05:51:01;;;;;;;5.20;4.70;;;15.30;99.90;;;;;;5093647;28;20201;-74
2023/08/13 05:53:27;;;;;;;8.65;4.60;;;15.30;99.90;;;;;;5092094;28;20173;-74
2023/08/13 05:55:53;;;;;;;9.88;4.70;;;15.40;99.90;;;;;;5093560;28;20621;-74
2023/08/13 05:58:19;;;;;;;9.38;4.93;;;15.50;99.90;;;;;;5091902;28;20205;-74
2023/08/13 06:00:44;;;;;;;6.30;4.90;;;15.70;99.90;;;;;;5091887;28;20292;-74
2023/08/13 06:03:10;;;;;;;9.95;4.85;;;15.80;99.90;;;;;;5093071;28;20230;-74
2023/08/13 06:05:37;;;;;;;9.48;4.95;;;15.80;99.90;;;;;;5091635;28;20200;-74
2023/08/13 06:08:04;;;;;;;8.77;4.40;;;15.90;99.90;;;;;;5093276;28;20181;-74
2023/08/13 06:10:30;;;;;;;6.20;5.03;;;16.00;99.90;;;;;;5091846;28;20760;-74
2023/08/13 06:12:56;;;;;;;7.13;4.75;;;16.00;99.90;;;;;;5091636;28;20335;-74
2023/08/13 06:15:21;;;;;;;6.90;4.72;;;16.00;99.90;;;;;;5091929;28;20243;-76
2023/08/13 06:17:48;;;;;;;7.88;5.57;;;16.00;99.90;;;;;;5092961;28;20176;-76
2023/08/13 06:20:15;;;;;;;6.60;4.65;;;16.00;99.90;;;;;;5093009;28;20169;-76
2023/08/13 06:22:41;;;;;;;7.28;5.13;;;16.10;99.90;;;;;;5093296;28;20165;-76
2023/08/13 06:25:07;;;;;;;9.32;5.00;;;16.10;99.90;;;;;;5092004;28;20177;-76
2023/08/13 06:27:33;;;;;;;8.45;5.40;;;16.10;99.90;;;;;;5089270;28;20642;-76
2023/08/13 06:29:59;;;;;;;12.55;5.72;;;16.20;99.90;;;;;;5071305;28;20210;-76
2023/08/13 06:32:25;;;;;;;15.38;6.28;;;16.20;99.90;;;;;;5071384;28;20169;-76
2023/08/13 06:34:50;;;;;;;8.93;5.10;;;16.30;99.90;;;;;;5071444;28;20180;-76
2023/08/13 06:37:16;;;;;;;8.40;5.50;;;16.40;99.90;;;;;;5073068;28;20170;-76
2023/08/13 06:39:42;;;;;;;6.03;4.55;;;16.50;99.90;;;;;;5071433;28;20205;-76
2023/08/13 06:42:08;;;;;;;7.72;4.90;;;16.50;99.90;;;;;;5072306;28;20205;-76
2023/08/13 06:44:33;;;;;;;5.60;4.65;;;16.60;99.90;;;;;;5075312;28;20645;-76
2023/08/13 06:46:59;;;;;;;5.32;4.40;;;16.60;99.90;;;;;;5074821;28;20184;-76
2023/08/13 06:49:25;;;;;;;10.18;5.25;;;16.70;99.90;;;;;;5074689;28;20237;-76
2023/08/13 06:51:51;;;;;;;8.60;5.43;;;16.70;99.90;;;;;;5074786;28;20177;-76
2023/08/13 06:54:16;;;;;;;9.05;5.00;;;16.80;99.90;;;;;;5074822;28;20606;-76
2023/08/13 06:56:42;;;;;;;7.88;4.78;;;16.80;99.90;;;;;;5074551;28;20277;-76
2023/08/13 06:59:08;;;;;;;7.35;5.30;;;16.80;99.90;;;;;;5074573;28;20233;-76
2023/08/13 07:01:35;;;;;;;6.90;4.60;;;16.90;99.90;;;;;;5074474;28;20205;-76
2023/08/13 07:04:00;;;;;;;9.63;4.65;;;17.10;99.90;;;;;;5075826;28;20178;-76
2023/08/13 07:06:27;;;;;;;10.52;5.88;;;17.20;99.90;;;;;;5074351;28;20208;-76
2023/08/13 07:08:53;;;;;;;7.90;4.97;;;17.30;99.90;;;;;;5075544;28;20214;-76
2023/08/13 07:11:18;;;;;;;8.25;5.07;;;17.40;99.90;;;;;;5074298;28;20304;-75
2023/08/13 07:13:44;;;;;;;5.63;4.50;;;17.60;99.90;;;;;;5075928;28;20173;-76
2023/08/13 07:16:13;;;;;;;10.05;4.72;;;17.70;99.90;;;;;;5075566;28;20248;-76
2023/08/13 07:18:39;;;;;;;7.20;4.55;;;17.90;99.90;;;;;;5075480;28;20197;-76
2023/08/13 07:21:06;;;;;;;15.35;5.65;;;18.00;99.90;;;;;;5075512;28;20169;-76
2023/08/13 07:23:32;;;;;;;6.53;4.07;;;18.20;99.90;;;;;;5076056;28;20174;-76
2023/08/13 07:25:58;;;;;;;9.27;3.95;;;18.20;99.90;;;;;;5074201;28;20181;-76
2023/08/13 07:28:24;;;;;;;7.75;3.75;;;18.30;99.90;;;;;;5075008;28;20213;-76
2023/08/13 07:30:50;;;;;;;8.15;3.92;;;18.30;99.90;;;;;;5075316;28;20173;-76
2023/08/13 07:33:15;;;;;;;12.32;3.97;;;18.40;99.90;;;;;;5074096;28;20265;-76
2023/08/13 07:35:41;;;;;;;8.30;4.13;;;18.30;99.90;;;;;;5075578;28;20165;-76
2023/08/13 07:38:07;;;;;;;6.65;3.83;;;18.50;99.90;;;;;;5074118;28;20573;-76
2023/08/13 07:40:34;;;;;;;9.43;4.50;;;18.60;99.90;;;;;;5074277;28;20670;-76
2023/08/13 07:43:00;;;;;;;7.95;3.70;;;18.60;99.90;;;;;;5076013;28;20177;-76
2023/08/13 07:45:28;;;;;;;7.32;3.75;;;18.80;99.90;;;;;;5075222;28;20261;-76
2023/08/13 07:47:53;;;;;;;4.88;3.20;;;18.80;99.90;;;;;;5073832;28;20182;-76
2023/08/13 07:50:19;;;;;;;12.68;3.53;;;18.90;99.90;;;;;;5073704;28;20204;-76
2023/08/13 07:52:45;;;;;;;6.28;2.95;;;19.00;99.90;;;;;;5073743;28;20220;-76
2023/08/13 07:55:11;;;;;;;8.70;3.30;;;19.00;99.90;;;;;;5073334;28;20196;-76
2023/08/13 07:57:36;;;;;;;10.32;3.30;;;19.10;99.90;;;;;;5074857;28;20662;-76
2023/08/13 08:00:05;;;;;;;7.32;3.20;;;19.20;99.90;;;;;;5073671;28;20343;-76
2023/08/13 08:02:31;;;;;;;7.13;3.25;;;19.20;99.90;;;;;;5073570;28;20247;-76
2023/08/13 08:04:57;;;;;;;6.90;2.95;;;19.30;99.90;;;;;;5073559;28;20638;-76
2023/08/13 08:07:25;;;;;;;9.27;2.78;;;19.40;99.90;;;;;;5073306;28;20658;-76
2023/08/13 08:09:51;;;;;;;8.63;3.45;;;19.50;99.90;;;;;;5073330;28;20213;-76
2023/08/13 08:12:16;;;;;;;5.32;2.67;;;19.60;99.90;;;;;;5074330;28;20180;-76
2023/08/13 08:14:42;;;;;;;8.07;3.17;;;19.60;99.90;;;;;;5074748;28;20197;-76
2023/08/13 08:17:08;;;;;;;10.65;3.17;;;19.70;99.90;;;;;;5074572;28;20204;-76
2023/08/13 08:19:34;;;;;;;7.05;2.88;;;20.00;99.90;;;;;;5073085;28;20202;-76
2023/08/13 08:22:00;;;;;;;8.63;2.70;;;20.00;99.90;;;;;;5074569;28;20261;-76
2023/08/13 08:24:26;;;;;;;4.30;2.25;;;20.10;99.90;;;;;;5073365;28;20209;-76
2023/08/13 08:26:51;;;;;;;5.65;2.40;;;20.20;99.90;;;;;;5074832;28;20242;-76
2023/08/13 08:29:17;;;;;;;7.10;3.00;;;20.30;99.90;;;;;;5074422;28;20205;-76
2023/08/13 08:31:43;;;;;;;3.85;1.92;;;20.50;99.90;;;;;;5074518;28;20170;-77
2023/08/13 08:34:09;;;;;;;10.05;2.65;;;20.50;99.90;;;;;;5074353;28;20540;-76
2023/08/13 08:36:34;;;;;;;7.90;2.70;;;20.80;99.90;;;;;;5074223;28;20202;-77
2023/08/13 08:39:00;;;;;;;6.35;2.30;;;21.00;99.90;;;;;;5074209;28;20262;-76
2023/08/13 08:41:32;;;;;;;6.75;2.30;;;21.30;99.90;;;;;;5072664;28;20717;-77
2023/08/13 08:43:58;;;;;;;6.57;2.33;;;21.40;99.90;;;;;;5073687;28;20565;-76
2023/08/13 08:46:27;;;;;;;5.68;2.20;;;21.30;99.90;;;;;;5072992;28;20189;-77
2023/08/13 08:48:53;;;;;;;6.47;2.40;;;21.40;99.90;;;;;;5072633;28;20205;-76
2023/08/13 08:51:21;;;;;;;3.65;2.00;;;21.50;99.90;;;;;;5072764;28;20174;-76
2023/08/13 08:53:49;;;;;;;4.80;2.00;;;21.50;99.40;;;;;;5074698;28;20170;-75
2023/08/13 08:56:15;;;;;;;8.85;2.60;;;21.50;92.00;;;;;;5075404;28;20174;-75
2023/08/13 08:58:40;;;;;;;6.15;2.28;;;21.50;99.90;;;;;;5074230;28;20201;-75
2023/08/13 09:01:07;;;;;;;6.15;2.30;;;21.60;99.90;;;;;;5074182;28;20201;-75
2023/08/13 09:03:32;;;;;;;4.63;2.35;;;21.50;84.10;;;;;;5072495;28;20178;-75
2023/08/13 09:05:58;;;;;;;7.15;2.40;;;21.40;99.90;;;;;;5073046;28;20562;-75
2023/08/13 09:08:25;;;;;;;3.03;2.25;;;21.20;99.90;;;;;;5072308;28;20651;-75
2023/08/13 09:10:51;;;;;;;6.00;2.10;;;21.20;99.90;;;;;;5073764;28;20544;-75
2023/08/13 09:13:17;;;;;;;5.50;2.10;;;21.20;1.00;;;;;;5072228;28;20176;-76
2023/08/13 09:15:49;;;;;;;4.00;2.03;;;21.20;88.50;;;;;;5072346;28;20207;-75
2023/08/13 09:18:15;;;;;;;3.83;2.13;;;21.30;99.90;;;;;;5073588;28;20269;-75
2023/08/13 09:20:48;;;;;;;6.13;2.10;;;21.30;1.00;;;;;;5072431;28;20178;-75
2023/08/13 09:23:24;;;;;;;5.95;2.28;;;21.50;99.90;;;;;;5073602;28;20578;-75
2023/08/13 09:25:55;;;;;;;6.07;2.60;;;21.70;99.90;;;;;;5072362;28;20181;-75
2023/08/13 09:28:21;;;;;;;7.68;2.08;;;21.70;99.90;;;;;;5071712;28;20251;-75
2023/08/13 09:30:47;;;;;;;6.90;2.22;;;21.90;1.00;;;;;;5073620;28;20574;-75
2023/08/13 09:33:16;;;;;;;8.25;2.45;;;22.00;1.00;;;;;;5073391;28;20358;-75
2023/08/13 09:35:43;;;;;;;8.00;2.33;;;22.30;99.90;;;;;;5073478;28;20173;-75
2023/08/13 09:38:09;;;;;;;7.00;2.10;;;22.50;99.90;;;;;;5073641;28;20190;-75
2023/08/13 09:40:35;;;;;;;4.70;1.95;;;22.50;1.00;;;;;;5073449;28;20184;-75
2023/08/13 09:43:06;;;;;;;3.58;1.98;;;22.50;1.00;;;;;;5073228;28;20179;-75
2023/08/13 09:45:33;;;;;;;6.25;2.17;;;22.60;1.00;;;;;;5072154;28;20216;-75
2023/08/13 09:48:04;;;;;;;7.82;2.50;;;22.70;99.90;;;;;;5073220;28;20180;-75
2023/08/13 09:50:34;;;;;;;8.18;2.20;;;22.70;99.90;;;;;;5073785;28;20158;-75
2023/08/13 09:53:02;;;;;;;12.32;2.38;;;22.70;68.40;;;;;;5072247;28;20634;-75
2023/08/13 09:55:31;;;;;;;7.50;2.40;;;22.80;51.20;;;;;;5073374;28;20252;-75
2023/08/13 09:58:00;;;;;;;4.60;2.15;;;22.80;99.90;;;;;;5072909;28;20182;-75
2023/08/13 10:00:29;;;;;;;9.30;2.55;;;22.80;1.00;;;;;;5072032;28;20170;-75
2023/08/13 10:02:56;;;;;;;7.90;2.47;;;22.90;1.00;;;;;;5071992;28;20545;-75
2023/08/13 10:05:21;;;;;;;6.90;2.20;;;23.00;1.00;;;;;;5072404;28;20177;-75
2023/08/13 10:07:48;;;;;;;5.88;2.33;;;23.20;1.00;;;;;;5072029;28;20634;-75
2023/08/13 10:10:14;;;;;;;6.57;1.92;;;23.20;1.00;;;;;;5073235;28;20174;-75
2023/08/13 10:12:40;;;;;;;5.78;1.90;;;23.20;1.00;;;;;;5073217;28;20717;-75
2023/08/13 10:15:08;;;;;;;3.53;1.85;;;23.20;1.00;;;;;;5073970;28;20174;-75
2023/08/13 10:17:34;;;;;;;7.07;2.33;;;23.20;1.00;;;;;;5074759;28;20181;-75
2023/08/13 10:19:59;;;;;;;4.60;2.08;;;23.30;10.80;;;;;;5076966;28;20194;-76
2023/08/13 10:22:32;;;;;;;4.65;2.08;;;23.40;1.00;;;;;;5078076;28;20523;-75
2023/08/13 10:25:01;;;;;;;5.75;2.30;;;23.50;1.00;;;;;;5077192;28;20170;-75
2023/08/13 10:27:28;;;;;;;5.13;2.40;;;23.50;99.90;;;;;;5076659;28;20181;-75
2023/08/13 10:30:07;;;;;;;5.20;2.13;;;23.60;1.00;;;;;;5076731;28;20247;-75
2023/08/13 10:32:38;;;;;;;7.28;2.13;;;23.50;1.00;;;;;;5075477;28;20174;-75
2023/08/13 10:35:30;;;;;;;7.50;2.47;;;23.40;1.00;;;;;;5077002;28;20630;-75
2023/08/13 10:38:00;;;;;;;5.25;2.08;;;23.20;1.00;;;;;;5076845;28;20159;-75
2023/08/13 10:40:26;;;;;;;6.90;2.47;;;23.10;1.00;;;;;;5076479;28;20173;-75
2023/08/13 10:42:54;;;;;;;6.28;2.38;;;23.00;1.00;;;;;;5074924;28;20210;-75
2023/08/13 10:45:23;;;;;;;5.03;2.38;;;22.80;1.00;;;;;;5075236;28;20174;-75
2023/08/13 10:47:52;;;;;;;9.20;2.80;;;22.80;1.00;;;;;;5076167;28;20178;-75
2023/08/13 10:50:29;;;;;;;7.00;2.40;;;23.00;99.90;;;;;;5076377;28;20174;-75
2023/08/13 10:53:18;;;;;;;6.57;2.55;;;23.30;6.50;;;;;;5076279;28;20170;-75
2023/08/13 10:56:05;;;;;;;5.18;2.50;;;23.40;1.00;;;;;;5074980;28;20241;-75
2023/08/13 10:58:38;;;;;;;6.97;2.17;;;23.30;1.00;;;;;;5074329;28;20221;-75
2023/08/13 11:01:10;;;;;;;9.02;2.60;;;23.20;71.10;;;;;;5076227;28;20166;-75
2023/08/13 11:03:53;;;;;;;4.28;2.35;;;23.30;1.00;;;;;;5076069;28;20224;-75
2023/08/13 11:06:24;;;;;;;7.60;2.53;;;23.40;1.00;;;;;;5074718;28;20275;-75
2023/08/13 11:08:50;;;;;;;10.00;2.63;;;23.40;1.00;;;;;;5076740;28;20209;-75
2023/08/13 11:11:17;;;;;;;5.88;2.13;;;23.60;1.00;;;;;;5076053;28;20166;-75
2023/08/13 11:13:44;;;;;;;3.58;2.47;;;23.40;1.00;;;;;;5075684;28;20177;-75
2023/08/13 11:16:11;;;;;;;7.82;2.40;;;23.20;1.00;;;;;;5076200;28;20660;-75
2023/08/13 11:18:37;;;;;;;5.47;2.30;;;23.00;1.00;;;;;;5075727;28;20212;-75
2023/08/13 11:21:04;;;;;;;5.32;2.33;;;22.80;18.50;;;;;;5074526;28;20234;-75
2023/08/13 11:23:30;;;;;;;4.47;2.53;;;22.70;1.00;;;;;;5075732;28;20683;-75
2023/08/13 11:25:56;;;;;;;10.73;2.60;;;22.70;1.00;;;;;;5075626;28;20178;-75
2023/08/13 11:28:23;;;;;;;4.18;2.40;;;22.80;19.20;;;;;;5075088;28;20701;-75
2023/08/13 11:30:52;;;;;;;7.13;2.50;;;23.00;1.00;;;;;;5074588;28;20193;-75
2023/08/13 11:33:19;;;;;;;4.45;2.10;;;23.10;1.00;;;;;;5075490;28;20212;-75
2023/08/13 11:35:48;;;;;;;5.40;2.67;;;23.10;1.00;;;;;;5074063;28;20178;-75
2023/08/13 11:38:14;;;;;;;7.50;2.58;;;23.10;1.00;;;;;;5075575;28;20221;-75
2023/08/13 11:40:40;;;;;;;6.68;2.47;;;23.20;1.00;;;;;;5073939;28;20278;-75
2023/08/13 11:43:10;;;;;;;6.35;2.55;;;23.20;1.00;;;;;;5073713;28;20186;-75
2023/08/13 11:45:38;;;;;;;6.45;2.22;;;23.20;1.00;;;;;;5074001;28;20178;-75
2023/08/13 11:48:11;;;;;;;5.32;2.50;;;23.10;1.00;;;;;;5075065;28;20169;-75
2023/08/13 11:50:39;;;;;;;7.65;2.35;;;23.00;1.00;;;;;;5075340;28;20174;-75
2023/08/13 11:53:16;;;;;;;8.27;2.88;;;23.10;1.00;;;;;;5073721;28;20223;-75
2023/08/13 11:55:44;;;;;;;5.18;2.30;;;23.10;1.00;;;;;;5073690;28;20173;-75
2023/08/13 11:58:11;;;;;;;5.85;2.67;;;23.20;1.00;;;;;;5074518;28;20213;-75
2023/08/13 12:00:37;;;;;;;4.30;2.20;;;23.30;99.90;;;;;;5073489;28;20269;-75
2023/08/13 12:03:03;;;;;;;5.97;2.53;;;23.40;1.00;;;;;;5073385;28;20520;-75
2023/08/13 12:05:34;;;;;;;5.90;2.58;;;23.60;99.90;;;;;;5073371;28;20198;-75
2023/08/13 12:08:02;;;;;;;5.68;2.55;;;23.70;1.00;;;;;;5073250;28;20178;-75
2023/08/13 12:10:27;;;;;;;5.20;2.40;;;23.60;1.00;;;;;;5074619;28;20247;-75
2023/08/13 12:12:54;;;;;;;10.02;3.00;;;23.60;99.90;;;;;;5074424;28;20224;-75
2023/08/13 12:15:24;;;;;;;9.52;2.50;;;23.60;99.90;;;;;;5074792;28;20165;-75
2023/08/13 12:17:54;;;;;;;6.88;2.50;;;23.80;99.90;;;;;;5074657;28;20173;-75
2023/08/13 12:20:20;;;;;;;4.18;2.30;;;23.80;1.00;;;;;;5074348;28;20181;-75
2023/08/13 12:22:46;;;;;;;6.95;2.53;;;23.70;99.90;;;;;;5074392;28;20568;-75
2023/08/13 12:25:11;;;;;;;5.10;2.65;;;23.70;1.00;;;;;;5074379;28;20200;-75
2023/08/13 12:27:37;;;;;;;12.93;2.97;;;23.70;1.00;;;;;;5074324;28;20188;-75
2023/08/13 12:30:04;;;;;;;7.20;2.58;;;23.90;36.40;;;;;;5072768;28;20209;-75
2023/08/13 12:32:31;;;;;;;5.63;2.33;;;23.80;99.90;;;;;;5076030;28;20170;-75
2023/08/13 12:34:57;;;;;;;5.60;2.70;;;23.70;1.00;;;;;;5075097;28;20162;-75
2023/08/13 12:37:22;;;;;;;5.15;2.97;;;23.70;1.00;;;;;;5074221;28;20253;-75
2023/08/13 12:39:49;;;;;;;8.38;2.90;;;23.60;1.00;;;;;;5072864;28;20623;-75
2023/08/13 12:42:15;;;;;;;8.88;2.80;;;23.70;99.90;;;;;;5074108;28;20540;-75
2023/08/13 12:44:41;;;;;;;5.30;2.58;;;23.90;99.90;;;;;;5073765;28;20166;-75
2023/08/13 12:47:07;;;;;;;11.50;3.15;;;23.90;1.00;;;;;;5072782;28;20180;-75